Island Grove, Illinois
Current Conditions -  °F | °C
As of 12:15 PM on Thursday 23 Oct 2014 (Local Time) from K1H2 Reporting Station
Clear Clear  
Wind Chill: 59°   Ceiling: Unl
Heat Index: 59°   Visibility: 10mi
Dew Point: 42°   Wind: 6mph
Humidity: 54%   Direction: 170°S
Pressure: 30.21"   Gusts: NA
Location:  39.1301°N, 88.4695°W
Report Text: K1H2 231715Z AUTO 17005KT 10SM CLR 15/06 A3021 RMK AO2 T01490057
Loading
Personal Weather Stations






























Interactive Weather Map
Tropical Storm Tracking
New forecast layout! Learn more

10-Day Weather Forecast

Advertisements
Track Severe Weather on mobile